Terminal Aerodrome Forecast
Issued by NWS

Home | Current Version | Previous Version | Text Only | Print | Product List | Glossary On
Versions: 1 2 3 4 5 6 7 8 9 10 11 12 13 14 15
000
FTUS46 KSTO 301700 RRA
TAFSCK
TAF
KSCK 301751Z 3018/3118 VRB04KT P6SM BKN250
     FM302200 29007KT P6SM BKN200
     FM311000 14007KT P6SM SCT020 BKN050 OVC080=

USA.gov is the U.S. government's official web portal to all federal, state and local government web resources and services.